Time;durP1;ratioP1;P1;durP2;ratioP2;P2;SDS_P1;SDS_P2;PMS_P1;PMS_P2;Temp;Humidity;BMP_temperature;BMP_pressure;BME280_temperature;BME280_humidity;BME280_pressure;Samples;Min_cycle;Max_cycle;Signal;HPM_P1;HPM_P2
2023/06/15 00:00:48;;;;;;;3.53;1.30;;;11.90;66.00;;;;;;6280492;22;19999;-69
2023/06/15 00:03:18;;;;;;;11.27;1.70;;;12.00;65.50;;;;;;6306948;22;20007;-69
2023/06/15 00:05:46;;;;;;;5.45;1.23;;;12.10;64.80;;;;;;6307461;22;20483;-69
2023/06/15 00:08:13;;;;;;;5.00;1.50;;;12.10;64.60;;;;;;6307345;22;20003;-69
2023/06/15 00:10:40;;;;;;;5.93;1.65;;;12.10;64.10;;;;;;6278863;22;20019;-69
2023/06/15 00:13:07;;;;;;;2.05;0.90;;;12.20;63.80;;;;;;6305798;22;20003;-69
2023/06/15 00:15:34;;;;;;;8.02;1.73;;;12.20;63.50;;;;;;6306110;22;20441;-69
2023/06/15 00:18:01;;;;;;;4.43;1.50;;;12.30;63.40;;;;;;6278574;22;20003;-69
2023/06/15 00:20:29;;;;;;;2.88;1.05;;;12.30;63.00;;;;;;6305683;22;19999;-69
2023/06/15 00:22:57;;;;;;;2.40;0.93;;;12.40;62.60;;;;;;6278644;22;20327;-69
2023/06/15 00:25:24;;;;;;;3.03;1.00;;;12.40;62.30;;;;;;6279920;22;20003;-69
2023/06/15 00:27:51;;;;;;;3.78;1.20;;;12.50;61.90;;;;;;6306448;22;20068;-69
2023/06/15 00:30:19;;;;;;;3.95;1.02;;;12.50;61.40;;;;;;6306854;22;20326;-69
2023/06/15 00:32:46;;;;;;;2.28;0.93;;;12.50;61.20;;;;;;6280040;22;20136;-69
2023/06/15 00:35:13;;;;;;;3.45;1.05;;;12.60;60.90;;;;;;6279154;22;19996;-69
2023/06/15 00:37:40;;;;;;;3.60;1.20;;;12.60;60.80;;;;;;6306620;22;20330;-69
2023/06/15 00:40:09;;;;;;;6.65;1.42;;;12.70;60.40;;;;;;6306193;22;20080;-69
2023/06/15 00:42:36;;;;;;;3.90;1.30;;;12.70;60.30;;;;;;6306299;22;20295;-69
2023/06/15 00:45:05;;;;;;;7.95;1.40;;;12.70;60.10;;;;;;6305673;22;20003;-70
2023/06/15 00:47:32;;;;;;;2.92;1.13;;;12.80;59.90;;;;;;6277932;22;20061;-69
2023/06/15 00:49:59;;;;;;;4.00;1.27;;;12.80;59.70;;;;;;6252522;22;20014;-69
2023/06/15 00:52:26;;;;;;;2.33;1.10;;;12.90;59.60;;;;;;6305627;22;19995;-69
2023/06/15 00:54:53;;;;;;;3.80;1.20;;;12.90;59.20;;;;;;6304724;22;20004;-69
2023/06/15 00:57:24;;;;;;;2.25;0.77;;;13.00;59.00;;;;;;6253642;22;19995;-69
2023/06/15 00:59:51;;;;;;;1.75;0.90;;;13.00;58.70;;;;;;6253739;22;20000;-69
2023/06/15 01:02:18;;;;;;;2.22;0.88;;;13.00;58.70;;;;;;6279398;22;19999;-69
2023/06/15 01:04:45;;;;;;;4.25;0.93;;;13.10;58.70;;;;;;6306022;22;20003;-69
2023/06/15 01:07:12;;;;;;;2.60;0.60;;;13.10;58.60;;;;;;6278259;22;20331;-71
2023/06/15 01:09:41;;;;;;;3.20;0.90;;;13.20;58.50;;;;;;6304341;22;20015;-71
2023/06/15 01:12:11;;;;;;;3.03;0.82;;;13.20;58.50;;;;;;6278617;22;19995;-69
2023/06/15 01:14:39;;;;;;;2.05;0.70;;;13.20;58.40;;;;;;6254861;22;20003;-69
2023/06/15 01:17:15;;;;;;;2.95;1.05;;;13.20;58.20;;;;;;6278304;22;20005;-72
2023/06/15 01:20:08;;;;;;;3.45;1.20;;;13.20;58.00;;;;;;6279122;22;20007;-71
2023/06/15 01:22:59;;;;;;;7.35;1.10;;;13.20;58.10;;;;;;6283609;22;20418;-72
2023/06/15 01:25:45;;;;;;;2.83;0.88;;;13.30;57.90;;;;;;6305460;22;20008;-72
2023/06/15 01:28:15;;;;;;;2.33;1.08;;;13.30;57.70;;;;;;6253613;22;20342;-72
2023/06/15 01:30:43;;;;;;;2.33;1.00;;;13.30;57.70;;;;;;6279483;22;20004;-72
2023/06/15 01:33:10;;;;;;;2.85;0.90;;;13.30;57.40;;;;;;6279022;22;20014;-71
2023/06/15 01:35:38;;;;;;;2.75;1.20;;;13.30;57.40;;;;;;6278704;22;20003;-70
2023/06/15 05:18:57;;;;;;;0.45;0.45;;;15.10;53.00;;;;;;6300845;22;20111;-70
2023/06/15 05:21:24;;;;;;;1.60;0.70;;;15.10;53.10;;;;;;6305624;22;20039;-71
2023/06/15 05:23:51;;;;;;;8.57;1.40;;;15.20;53.30;;;;;;6305433;22;20006;-71
2023/06/15 05:26:20;;;;;;;3.58;1.10;;;15.10;53.80;;;;;;6305582;22;20422;-71
2023/06/15 05:28:47;;;;;;;2.90;1.10;;;15.20;53.80;;;;;;6278676;22;20102;-71
2023/06/15 05:31:14;;;;;;;4.70;0.90;;;15.10;54.20;;;;;;6305529;22;20413;-71
2023/06/15 05:33:42;;;;;;;1.65;0.77;;;15.10;54.00;;;;;;6278822;22;20003;-69
2023/06/15 05:36:09;;;;;;;0.98;0.47;;;15.10;53.80;;;;;;6304276;22;19999;-69
2023/06/15 05:38:36;;;;;;;1.98;0.73;;;15.20;53.70;;;;;;6275363;22;20058;-68
2023/06/15 05:41:03;;;;;;;3.90;0.73;;;15.10;53.60;;;;;;6302846;22;20044;-68
2023/06/15 05:43:31;;;;;;;1.75;0.52;;;15.20;53.70;;;;;;6302542;22;20021;-68
2023/06/15 05:45:58;;;;;;;1.27;0.73;;;15.10;53.70;;;;;;6303290;22;20031;-68
2023/06/15 05:48:25;;;;;;;2.08;0.75;;;15.10;53.70;;;;;;6301763;22;20016;-68
2023/06/15 05:50:52;;;;;;;2.03;0.73;;;15.10;54.20;;;;;;6302863;22;20076;-68
2023/06/15 05:53:19;;;;;;;2.65;0.57;;;15.10;54.20;;;;;;6302338;22;20018;-68
2023/06/15 05:55:46;;;;;;;4.45;0.73;;;15.20;54.20;;;;;;6299857;22;20007;-68
2023/06/15 05:58:14;;;;;;;1.95;0.80;;;15.20;54.20;;;;;;6302378;22;20019;-68
2023/06/15 06:00:41;;;;;;;1.13;0.82;;;15.10;54.20;;;;;;6274420;22;20033;-69
2023/06/15 06:03:08;;;;;;;6.70;1.50;;;15.20;54.20;;;;;;6289668;22;20366;-67
2023/06/15 06:05:36;;;;;;;2.58;0.70;;;15.10;54.50;;;;;;6300210;22;20007;-68
2023/06/15 06:08:04;;;;;;;2.85;0.90;;;15.10;54.50;;;;;;6273357;22;20057;-69
2023/06/15 06:10:34;;;;;;;5.97;0.95;;;15.10;54.40;;;;;;6272721;22;20003;-69
2023/06/15 06:13:01;;;;;;;3.30;1.20;;;15.10;54.50;;;;;;6301398;22;20099;-69
2023/06/15 06:15:29;;;;;;;4.30;1.33;;;15.00;54.60;;;;;;6302142;22;20003;-69
2023/06/15 06:17:56;;;;;;;2.50;0.93;;;15.10;54.70;;;;;;6302731;22;20074;-69
2023/06/15 06:20:23;;;;;;;1.70;0.95;;;15.10;54.80;;;;;;6274669;22;20402;-69
2023/06/15 06:22:51;;;;;;;3.97;0.93;;;15.00;54.60;;;;;;6273647;22;20515;-69
2023/06/15 06:25:18;;;;;;;2.10;0.70;;;15.00;54.60;;;;;;6299845;22;20019;-68
2023/06/15 06:27:45;;;;;;;4.50;1.30;;;15.00;54.70;;;;;;6274712;22;20714;-68
2023/06/15 06:30:12;;;;;;;3.08;1.25;;;15.00;55.00;;;;;;6273874;22;20084;-68
2023/06/15 06:32:40;;;;;;;4.60;1.20;;;15.00;55.30;;;;;;6301605;22;20086;-72
2023/06/15 06:35:07;;;;;;;5.28;1.35;;;15.00;55.30;;;;;;6300975;22;19999;-69
2023/06/15 06:37:34;;;;;;;10.65;1.95;;;15.00;55.10;;;;;;6298585;22;20082;-68
2023/06/15 06:40:03;;;;;;;8.75;1.60;;;14.90;55.10;;;;;;6292524;22;20015;-68
2023/06/15 06:42:30;;;;;;;5.22;1.13;;;15.00;55.30;;;;;;6273337;22;20007;-68
2023/06/15 06:44:57;;;;;;;6.05;1.48;;;14.90;55.20;;;;;;6299990;22;20097;-67
2023/06/15 06:47:24;;;;;;;2.60;1.10;;;14.80;55.30;;;;;;6299295;22;20375;-69
2023/06/15 06:49:52;;;;;;;1.83;0.90;;;14.90;55.30;;;;;;6299718;22;20019;-69
2023/06/15 06:52:19;;;;;;;2.08;1.00;;;14.80;55.40;;;;;;6299571;22;20003;-68
2023/06/15 06:54:46;;;;;;;2.00;1.00;;;14.80;55.40;;;;;;6296295;22;20345;-68
2023/06/15 06:57:13;;;;;;;1.95;0.93;;;14.80;55.40;;;;;;6299515;22;20499;-68
2023/06/15 06:59:41;;;;;;;2.42;0.80;;;14.80;55.60;;;;;;6300396;22;20319;-67
2023/06/15 07:02:08;;;;;;;1.35;0.80;;;14.80;55.80;;;;;;6302234;22;20446;-68
2023/06/15 07:04:35;;;;;;;2.95;1.15;;;14.80;56.00;;;;;;6302558;22;20357;-68
2023/06/15 07:07:02;;;;;;;1.90;1.00;;;14.70;56.10;;;;;;6275203;22;20058;-68
2023/06/15 07:09:30;;;;;;;4.28;1.00;;;14.70;56.20;;;;;;6291960;22;20598;-68
2023/06/15 07:12:00;;;;;;;3.08;1.10;;;14.70;56.30;;;;;;6301361;22;20078;-68
2023/06/15 07:14:27;;;;;;;3.70;1.20;;;14.70;56.40;;;;;;6274634;22;20454;-67
2023/06/15 07:16:54;;;;;;;1.67;1.13;;;14.70;56.50;;;;;;6303240;22;20015;-68
2023/06/15 07:19:22;;;;;;;1.98;1.15;;;14.70;56.40;;;;;;6301289;22;20414;-68
2023/06/15 07:21:49;;;;;;;2.92;1.40;;;14.70;56.40;;;;;;6301802;22;20007;-68
2023/06/15 07:24:16;;;;;;;2.17;1.30;;;14.60;56.50;;;;;;6274561;22;20007;-68
2023/06/15 07:26:44;;;;;;;3.00;1.13;;;14.60;56.40;;;;;;6302527;22;20524;-69
2023/06/15 07:29:11;;;;;;;4.05;1.30;;;14.60;56.50;;;;;;6302050;22;20070;-69
2023/06/15 07:31:38;;;;;;;3.13;1.65;;;14.50;56.60;;;;;;6274258;22;20082;-70
2023/06/15 07:34:05;;;;;;;3.72;1.60;;;14.50;56.50;;;;;;6299158;22;20015;-68
2023/06/15 07:36:32;;;;;;;5.65;1.83;;;14.50;56.70;;;;;;6274246;22;20095;-68
2023/06/15 07:39:00;;;;;;;6.47;1.38;;;14.50;56.90;;;;;;6274900;22;20007;-70
2023/06/15 07:41:30;;;;;;;4.25;1.52;;;14.40;56.90;;;;;;6294121;22;20084;-70
2023/06/15 07:43:58;;;;;;;3.92;1.40;;;14.50;57.00;;;;;;6300859;22;20007;-67
2023/06/15 07:46:26;;;;;;;6.75;1.65;;;14.40;57.10;;;;;;6248305;22;20082;-67
2023/06/15 07:48:53;;;;;;;5.43;1.50;;;14.40;57.10;;;;;;6300970;22;20045;-67
2023/06/15 07:51:20;;;;;;;2.85;1.10;;;14.40;57.10;;;;;;6300848;22;20074;-68
2023/06/15 07:53:47;;;;;;;2.35;1.10;;;14.40;57.00;;;;;;6271693;22;20061;-68
2023/06/15 07:56:15;;;;;;;1.92;1.30;;;14.40;57.30;;;;;;6301073;22;20003;-72
2023/06/15 07:58:42;;;;;;;2.72;1.30;;;14.40;57.20;;;;;;6273972;22;20331;-69
2023/06/15 08:01:11;;;;;;;2.13;1.00;;;14.40;57.30;;;;;;6298887;22;20003;-69
2023/06/15 08:03:38;;;;;;;1.67;1.00;;;14.30;57.30;;;;;;6299905;22;20434;-69
2023/06/15 08:06:05;;;;;;;3.53;1.50;;;14.30;57.30;;;;;;6300438;22;20090;-69
2023/06/15 08:08:32;;;;;;;1.50;1.00;;;14.30;57.30;;;;;;6299942;22;20094;-72
2023/06/15 08:11:00;;;;;;;2.33;1.00;;;14.30;57.30;;;;;;6266603;22;20003;-69
2023/06/15 08:13:28;;;;;;;3.10;1.20;;;14.30;57.30;;;;;;6272661;22;20454;-70
2023/06/15 08:15:57;;;;;;;3.85;1.48;;;14.20;57.30;;;;;;6273728;22;20151;-69
2023/06/15 08:18:26;;;;;;;4.20;1.65;;;14.20;57.50;;;;;;6300800;22;20007;-68
2023/06/15 08:20:53;;;;;;;2.85;1.70;;;14.30;57.50;;;;;;6272619;22;20030;-68
2023/06/15 08:23:21;;;;;;;3.97;1.75;;;14.20;57.70;;;;;;6274885;22;20076;-68
2023/06/15 08:25:52;;;;;;;4.50;1.83;;;14.20;57.90;;;;;;6275529;22;20030;-68
2023/06/15 08:28:20;;;;;;;2.83;1.45;;;14.20;57.80;;;;;;6277202;22;20012;-68
2023/06/15 08:30:47;;;;;;;3.70;1.42;;;14.20;57.90;;;;;;6303107;22;20307;-68
2023/06/15 08:33:16;;;;;;;2.58;1.20;;;14.20;58.00;;;;;;6302839;22;20307;-68
2023/06/15 08:35:43;;;;;;;4.90;1.30;;;14.20;58.10;;;;;;6274290;22;20046;-68
2023/06/15 08:38:15;;;;;;;4.30;1.40;;;14.10;58.10;;;;;;6300989;22;20011;-68
2023/06/15 08:40:42;;;;;;;2.55;1.30;;;14.20;58.10;;;;;;6274163;22;20146;-67
2023/06/15 08:43:09;;;;;;;7.35;1.60;;;14.10;58.20;;;;;;6272140;22;20032;-67
2023/06/15 08:45:40;;;;;;;2.15;1.50;;;14.10;58.20;;;;;;6273523;22;20014;-67
2023/06/15 08:48:10;;;;;;;2.83;1.48;;;14.00;58.20;;;;;;6247483;22;20087;-71
2023/06/15 08:50:39;;;;;;;2.85;1.42;;;14.10;58.30;;;;;;6301835;22;20003;-68
2023/06/15 08:53:09;;;;;;;2.15;1.35;;;14.10;58.30;;;;;;6303052;22;20373;-69
2023/06/15 08:55:42;;;;;;;4.22;1.83;;;14.00;58.40;;;;;;6273838;22;20394;-69
2023/06/15 08:58:10;;;;;;;2.72;1.60;;;14.00;58.50;;;;;;6303743;22;19999;-68
2023/06/15 09:00:37;;;;;;;2.72;1.70;;;14.00;58.50;;;;;;6303041;22;20031;-68
2023/06/15 09:03:05;;;;;;;3.40;1.60;;;14.00;58.60;;;;;;6276142;22;20007;-68
2023/06/15 09:05:32;;;;;;;4.57;1.67;;;14.00;58.90;;;;;;6251159;22;20437;-68
2023/06/15 09:08:03;;;;;;;3.55;1.38;;;14.00;58.90;;;;;;6276284;22;20348;-68
2023/06/15 09:10:31;;;;;;;3.03;1.65;;;13.90;59.10;;;;;;6302351;22;20015;-70
2023/06/15 09:13:00;;;;;;;3.58;1.92;;;14.00;59.50;;;;;;6275985;22;20014;-71
2023/06/15 09:15:30;;;;;;;3.05;1.60;;;13.90;59.50;;;;;;6275583;22;20015;-70
2023/06/15 12:58:17;;;;;;;5.80;2.10;;;12.60;66.90;;;;;;6298976;22;20021;-71
2023/06/15 13:00:44;;;;;;;6.90;3.28;;;12.50;67.30;;;;;;6276823;22;20327;-71
2023/06/15 13:03:11;;;;;;;3.25;2.05;;;12.50;67.50;;;;;;6278576;22;20026;-71
2023/06/15 13:05:42;;;;;;;3.17;1.83;;;12.50;67.30;;;;;;6305840;22;20002;-71
2023/06/15 13:08:14;;;;;;;3.70;1.67;;;12.50;67.30;;;;;;6279328;22;20045;-71
2023/06/15 13:10:41;;;;;;;8.43;2.00;;;12.40;67.50;;;;;;6305219;22;20034;-71
2023/06/15 13:13:08;;;;;;;7.07;2.55;;;12.40;67.50;;;;;;6278608;22;19999;-71
2023/06/15 13:15:39;;;;;;;6.35;2.42;;;12.40;67.60;;;;;;6306153;22;20010;-71
2023/06/15 13:18:06;;;;;;;5.18;2.13;;;12.40;67.70;;;;;;6279854;22;20048;-71
2023/06/15 13:20:34;;;;;;;4.32;1.85;;;12.30;67.70;;;;;;6306318;22;20003;-72
2023/06/15 13:23:01;;;;;;;3.95;1.92;;;12.20;68.20;;;;;;6278330;22;20430;-72
2023/06/15 13:25:29;;;;;;;7.38;2.10;;;12.20;68.60;;;;;;6306489;22;20010;-71
2023/06/15 13:27:56;;;;;;;5.57;2.35;;;12.20;69.00;;;;;;6279225;22;19999;-71
2023/06/15 13:30:25;;;;;;;4.45;2.17;;;12.20;68.70;;;;;;6305335;22;20066;-72
2023/06/15 13:32:54;;;;;;;5.55;2.25;;;12.20;68.50;;;;;;6304448;22;20003;-71
2023/06/15 13:35:21;;;;;;;11.48;2.55;;;12.20;68.40;;;;;;6305913;22;20585;-71
2023/06/15 13:37:48;;;;;;;4.65;2.03;;;12.10;69.00;;;;;;6253236;22;20023;-71
2023/06/15 13:40:15;;;;;;;4.43;2.00;;;12.00;69.20;;;;;;6278490;22;20303;-71
2023/06/15 13:42:42;;;;;;;4.68;2.00;;;11.90;69.60;;;;;;6305967;22;20006;-71
2023/06/15 13:45:14;;;;;;;4.75;2.03;;;11.90;69.50;;;;;;6305804;22;20003;-71
2023/06/15 13:47:43;;;;;;;4.63;2.10;;;11.90;69.20;;;;;;6253143;22;20007;-71
2023/06/15 13:50:12;;;;;;;4.53;1.90;;;11.80;69.40;;;;;;6279490;22;20089;-71
2023/06/15 13:52:40;;;;;;;4.70;2.33;;;11.80;69.40;;;;;;6278602;22;20004;-71
2023/06/15 13:55:07;;;;;;;4.93;1.95;;;11.90;69.20;;;;;;6251973;22;20015;-71
2023/06/15 19:42:41;;;;;;;5.70;1.90;;;9.50;77.00;;;;;;6244145;22;20070;-73
2023/06/15 19:45:09;;;;;;;6.32;2.15;;;9.50;76.90;;;;;;6246091;22;20447;-72
2023/06/15 19:47:37;;;;;;;3.65;1.90;;;9.50;77.00;;;;;;6246284;22;20031;-72
2023/06/15 19:50:06;;;;;;;3.63;1.80;;;9.50;77.30;;;;;;6267980;22;20016;-72
2023/06/15 19:52:33;;;;;;;4.80;1.98;;;9.50;77.50;;;;;;6276150;22;20007;-73
2023/06/15 19:55:01;;;;;;;4.07;1.80;;;9.50;77.20;;;;;;6276615;22;20004;-72
2023/06/15 19:57:28;;;;;;;2.75;1.85;;;9.50;77.30;;;;;;6275473;22;19999;-72
2023/06/15 19:59:56;;;;;;;5.30;1.98;;;9.50;77.20;;;;;;6275887;22;20011;-72
2023/06/15 20:02:23;;;;;;;4.97;1.85;;;9.50;77.30;;;;;;6274275;22;20075;-73
2023/06/15 20:04:51;;;;;;;5.45;1.95;;;9.50;77.50;;;;;;6274947;22;20003;-73
2023/06/15 20:07:18;;;;;;;7.07;1.80;;;9.50;77.40;;;;;;6276321;22;20030;-73
2023/06/15 20:09:46;;;;;;;5.68;2.17;;;9.50;77.40;;;;;;6274965;22;20015;-72
2023/06/15 20:12:13;;;;;;;7.22;2.22;;;9.50;77.50;;;;;;6276518;22;19999;-73
2023/06/15 20:14:41;;;;;;;5.05;1.95;;;9.50;77.60;;;;;;6276153;22;20034;-73
2023/06/15 20:17:08;;;;;;;3.45;1.80;;;9.50;77.60;;;;;;6276478;22;20002;-73
2023/06/15 20:19:35;;;;;;;6.78;2.08;;;9.50;77.60;;;;;;6276051;22;20027;-73
2023/06/15 20:22:06;;;;;;;3.80;1.70;;;9.50;77.50;;;;;;6275121;22;20000;-72
2023/06/15 20:24:33;;;;;;;;;;;9.40;77.80;;;;;;6277012;22;20334;-72
2023/06/15 20:27:01;;;;;;;4.88;1.90;;;9.50;78.10;;;;;;6275615;22;19961;-72
2023/06/15 20:29:28;;;;;;;5.57;1.70;;;9.50;78.10;;;;;;6276447;22;20012;-72
2023/06/15 20:31:56;;;;;;;3.67;1.80;;;9.40;78.10;;;;;;6275573;22;20000;-73
2023/06/15 20:34:23;;;;;;;6.85;1.83;;;9.40;78.40;;;;;;6276252;22;20322;-72
2023/06/15 20:36:50;;;;;;;6.88;2.10;;;9.40;78.30;;;;;;6276071;22;20000;-72
2023/06/15 20:39:18;;;;;;;4.32;1.70;;;9.40;78.70;;;;;;6274859;22;20007;-72
2023/06/15 21:21:13;;;;;;;5.20;1.90;;;9.40;79.00;;;;;;6300888;22;20131;-72
2023/06/15 21:23:42;;;;;;;5.20;1.80;;;9.40;79.00;;;;;;6306492;22;20000;-74
2023/06/15 21:26:10;;;;;;;6.88;1.90;;;9.40;79.00;;;;;;6305740;22;20082;-74
2023/06/15 21:28:37;;;;;;;14.57;2.25;;;9.40;79.00;;;;;;6306311;22;20059;-75
2023/06/15 21:31:05;;;;;;;6.90;2.00;;;9.40;79.20;;;;;;6305616;22;20006;-75
2023/06/15 21:33:34;;;;;;;5.90;1.77;;;9.50;79.00;;;;;;6305287;22;20003;-75
2023/06/15 21:36:01;;;;;;;7.18;2.25;;;9.50;78.90;;;;;;6305950;22;19999;-75
2023/06/15 21:38:29;;;;;;;6.18;2.00;;;9.50;78.90;;;;;;6306232;22;20003;-75
2023/06/15 21:40:56;;;;;;;8.73;2.00;;;9.60;78.70;;;;;;6305989;22;20016;-74
2023/06/15 21:43:24;;;;;;;6.20;1.80;;;9.60;78.60;;;;;;6253780;22;20003;-74
2023/06/15 21:45:51;;;;;;;9.25;2.00;;;9.60;78.70;;;;;;6306184;22;20311;-73
2023/06/15 21:48:19;;;;;;;7.93;1.80;;;9.60;78.50;;;;;;6305804;22;20052;-73
2023/06/15 21:50:46;;;;;;;6.30;2.33;;;9.70;78.60;;;;;;6305774;22;20015;-73
2023/06/15 21:53:14;;;;;;;6.15;2.00;;;9.70;78.20;;;;;;6304323;22;20064;-73
2023/06/15 21:55:41;;;;;;;6.63;2.08;;;9.70;78.50;;;;;;6305860;22;20007;-72
2023/06/15 21:58:09;;;;;;;5.72;2.45;;;9.70;78.40;;;;;;6306101;22;20010;-68
2023/06/15 22:00:37;;;;;;;8.55;2.35;;;9.80;78.20;;;;;;6305142;22;20038;-68
2023/06/15 22:03:04;;;;;;;8.52;2.22;;;9.90;78.20;;;;;;6305532;22;20006;-68
2023/06/15 22:05:32;;;;;;;10.50;2.22;;;9.90;78.30;;;;;;6304545;22;20007;-68
2023/06/15 22:07:59;;;;;;;5.32;2.17;;;9.90;78.10;;;;;;6305732;22;20057;-69
2023/06/15 22:10:27;;;;;;;5.32;2.03;;;10.00;78.20;;;;;;6306043;22;20038;-68
2023/06/15 22:12:54;;;;;;;7.90;2.17;;;10.00;77.90;;;;;;6305196;22;20048;-68
2023/06/15 22:15:22;;;;;;;3.38;2.10;;;10.00;77.80;;;;;;6305473;22;20607;-68
2023/06/15 22:17:50;;;;;;;6.22;2.30;;;10.10;77.80;;;;;;6305744;22;19999;-68
2023/06/15 22:20:17;;;;;;;5.63;1.92;;;10.20;77.80;;;;;;6305046;22;20015;-68
2023/06/15 22:22:44;;;;;;;7.68;2.30;;;10.20;77.40;;;;;;6305835;22;20006;-68
2023/06/15 22:25:12;;;;;;;4.05;2.13;;;10.20;77.50;;;;;;6305947;22;20026;-68
2023/06/15 22:27:39;;;;;;;3.70;2.50;;;10.30;77.50;;;;;;6305839;22;20006;-68
2023/06/15 22:30:07;;;;;;;3.63;2.10;;;10.30;77.20;;;;;;6306914;22;20446;-68
2023/06/15 22:32:35;;;;;;;4.88;2.40;;;10.30;77.20;;;;;;6307577;22;20003;-68
2023/06/15 22:35:02;;;;;;;4.55;2.15;;;10.40;77.50;;;;;;6307714;22;20018;-68
2023/06/15 22:37:30;;;;;;;6.72;1.90;;;10.50;77.50;;;;;;6307747;22;20089;-69
2023/06/15 22:39:58;;;;;;;8.38;2.67;;;10.50;77.50;;;;;;6308028;22;20086;-68
2023/06/15 22:42:28;;;;;;;10.00;2.50;;;10.50;77.30;;;;;;6307361;22;20355;-68
2023/06/15 22:44:56;;;;;;;7.35;2.55;;;10.60;77.40;;;;;;6280382;22;20004;-68
2023/06/15 22:47:25;;;;;;;6.55;2.30;;;10.70;77.50;;;;;;6307715;22;20279;-68
